sensor_id;sensor_type;location;lat;lon;timestamp;temperature;humidity
3566;DHT22;1797;51.844;7.684;2023-04-15T00:00:15;7.00;1.00
3566;DHT22;1797;51.844;7.684;2023-04-15T00:02:41;6.90;1.00
3566;DHT22;1797;51.844;7.684;2023-04-15T00:05:07;6.90;1.00
3566;DHT22;1797;51.844;7.684;2023-04-15T00:07:33;6.90;1.00
3566;DHT22;1797;51.844;7.684;2023-04-15T00:09:58;6.90;1.00
3566;DHT22;1797;51.844;7.684;2023-04-15T00:12:26;6.80;1.00
3566;DHT22;1797;51.844;7.684;2023-04-15T00:14:51;6.80;1.00
3566;DHT22;1797;51.844;7.684;2023-04-15T00:17:17;6.80;1.00
3566;DHT22;1797;51.844;7.684;2023-04-15T00:19:43;6.80;1.00
3566;DHT22;1797;51.844;7.684;2023-04-15T00:22:10;6.70;1.00
3566;DHT22;1797;51.844;7.684;2023-04-15T00:24:36;6.70;1.00
3566;DHT22;1797;51.844;7.684;2023-04-15T00:27:02;6.70;1.00
3566;DHT22;1797;51.844;7.684;2023-04-15T00:29:28;6.70;1.00
3566;DHT22;1797;51.844;7.684;2023-04-15T00:31:54;6.70;1.00
3566;DHT22;1797;51.844;7.684;2023-04-15T00:34:21;6.50;1.00
3566;DHT22;1797;51.844;7.684;2023-04-15T00:36:47;6.50;1.00
3566;DHT22;1797;51.844;7.684;2023-04-15T00:39:13;6.40;1.00
3566;DHT22;1797;51.844;7.684;2023-04-15T00:41:39;6.40;1.00
3566;DHT22;1797;51.844;7.684;2023-04-15T00:44:07;6.40;1.00
3566;DHT22;1797;51.844;7.684;2023-04-15T00:46:37;6.40;16.70
3566;DHT22;1797;51.844;7.684;2023-04-15T00:49:04;6.30;1.00
3566;DHT22;1797;51.844;7.684;2023-04-15T00:51:31;6.30;92.90
3566;DHT22;1797;51.844;7.684;2023-04-15T00:53:58;6.30;93.90
3566;DHT22;1797;51.844;7.684;2023-04-15T00:56:24;6.30;61.10
3566;DHT22;1797;51.844;7.684;2023-04-15T00:58:51;6.30;99.90
3566;DHT22;1797;51.844;7.684;2023-04-15T01:01:20;6.30;99.90
3566;DHT22;1797;51.844;7.684;2023-04-15T01:03:48;6.20;99.90
3566;DHT22;1797;51.844;7.684;2023-04-15T01:06:15;6.20;99.90
3566;DHT22;1797;51.844;7.684;2023-04-15T01:08:41;6.10;99.90
3566;DHT22;1797;51.844;7.684;2023-04-15T01:11:07;6.10;99.90
3566;DHT22;1797;51.844;7.684;2023-04-15T01:13:35;6.20;99.90
3566;DHT22;1797;51.844;7.684;2023-04-15T01:16:01;6.20;99.90
3566;DHT22;1797;51.844;7.684;2023-04-15T01:18:27;6.10;99.90
3566;DHT22;1797;51.844;7.684;2023-04-15T01:20:53;6.10;99.90
3566;DHT22;1797;51.844;7.684;2023-04-15T01:23:20;6.00;1.00
3566;DHT22;1797;51.844;7.684;2023-04-15T01:25:48;6.00;1.00
3566;DHT22;1797;51.844;7.684;2023-04-15T01:28:14;6.00;1.00
3566;DHT22;1797;51.844;7.684;2023-04-15T01:30:40;6.00;1.00
3566;DHT22;1797;51.844;7.684;2023-04-15T01:33:06;6.00;1.00
3566;DHT22;1797;51.844;7.684;2023-04-15T01:35:32;6.00;1.00
3566;DHT22;1797;51.844;7.684;2023-04-15T01:38:05;5.90;1.00
3566;DHT22;1797;51.844;7.684;2023-04-15T01:40:32;5.90;1.00
3566;DHT22;1797;51.844;7.684;2023-04-15T01:42:58;6.00;1.00
3566;DHT22;1797;51.844;7.684;2023-04-15T01:45:24;6.00;1.00
3566;DHT22;1797;51.844;7.684;2023-04-15T01:47:50;6.00;1.00
3566;DHT22;1797;51.844;7.684;2023-04-15T01:50:15;5.90;1.00
3566;DHT22;1797;51.844;7.684;2023-04-15T01:52:41;5.90;1.00
3566;DHT22;1797;51.844;7.684;2023-04-15T01:55:08;5.90;1.00
3566;DHT22;1797;51.844;7.684;2023-04-15T01:57:34;5.90;1.00
3566;DHT22;1797;51.844;7.684;2023-04-15T02:00:00;5.80;1.00
3566;DHT22;1797;51.844;7.684;2023-04-15T02:02:25;5.80;1.00
3566;DHT22;1797;51.844;7.684;2023-04-15T02:04:51;5.80;1.00
3566;DHT22;1797;51.844;7.684;2023-04-15T02:07:17;5.70;99.90
3566;DHT22;1797;51.844;7.684;2023-04-15T02:09:43;5.70;97.20
3566;DHT22;1797;51.844;7.684;2023-04-15T02:12:10;5.70;38.50
3566;DHT22;1797;51.844;7.684;2023-04-15T02:14:36;5.70;1.00
3566;DHT22;1797;51.844;7.684;2023-04-15T02:17:02;5.60;30.70
3566;DHT22;1797;51.844;7.684;2023-04-15T02:19:35;5.60;99.90
3566;DHT22;1797;51.844;7.684;2023-04-15T02:22:01;5.50;99.90
3566;DHT22;1797;51.844;7.684;2023-04-15T02:24:28;5.50;91.80
3566;DHT22;1797;51.844;7.684;2023-04-15T02:26:54;5.40;1.00
3566;DHT22;1797;51.844;7.684;2023-04-15T02:29:20;5.40;1.00
3566;DHT22;1797;51.844;7.684;2023-04-15T02:31:47;5.30;99.90
3566;DHT22;1797;51.844;7.684;2023-04-15T02:34:13;5.30;99.90
3566;DHT22;1797;51.844;7.684;2023-04-15T02:36:38;5.20;99.90
3566;DHT22;1797;51.844;7.684;2023-04-15T02:39:05;5.20;1.00
3566;DHT22;1797;51.844;7.684;2023-04-15T02:41:31;5.20;1.00
3566;DHT22;1797;51.844;7.684;2023-04-15T02:43:56;5.20;1.00
3566;DHT22;1797;51.844;7.684;2023-04-15T02:46:22;5.20;1.00
3566;DHT22;1797;51.844;7.684;2023-04-15T02:48:51;5.20;91.90
3566;DHT22;1797;51.844;7.684;2023-04-15T02:51:19;5.20;99.90
3566;DHT22;1797;51.844;7.684;2023-04-15T02:53:46;5.10;1.00
3566;DHT22;1797;51.844;7.684;2023-04-15T02:56:11;5.10;1.00
3566;DHT22;1797;51.844;7.684;2023-04-15T02:58:38;5.10;99.20
3566;DHT22;1797;51.844;7.684;2023-04-15T03:01:03;5.10;99.90
3566;DHT22;1797;51.844;7.684;2023-04-15T03:03:29;5.10;99.90
3566;DHT22;1797;51.844;7.684;2023-04-15T03:05:55;5.00;99.90
3566;DHT22;1797;51.844;7.684;2023-04-15T03:08:21;5.00;2.10
3566;DHT22;1797;51.844;7.684;2023-04-15T03:10:47;5.00;99.90
3566;DHT22;1797;51.844;7.684;2023-04-15T03:13:12;5.00;1.00
3566;DHT22;1797;51.844;7.684;2023-04-15T03:15:38;4.90;1.00
3566;DHT22;1797;51.844;7.684;2023-04-15T03:18:04;4.90;1.00
3566;DHT22;1797;51.844;7.684;2023-04-15T03:20:29;4.90;1.00
3566;DHT22;1797;51.844;7.684;2023-04-15T03:22:55;4.90;1.00
3566;DHT22;1797;51.844;7.684;2023-04-15T03:25:21;4.80;1.00
3566;DHT22;1797;51.844;7.684;2023-04-15T03:27:47;4.80;1.00
3566;DHT22;1797;51.844;7.684;2023-04-15T03:30:12;4.70;1.00
3566;DHT22;1797;51.844;7.684;2023-04-15T03:32:38;4.70;99.90
3566;DHT22;1797;51.844;7.684;2023-04-15T03:35:04;4.60;99.90
3566;DHT22;1797;51.844;7.684;2023-04-15T03:37:30;4.70;99.90
3566;DHT22;1797;51.844;7.684;2023-04-15T03:39:55;4.60;55.80
3566;DHT22;1797;51.844;7.684;2023-04-15T03:42:21;4.60;49.40
3566;DHT22;1797;51.844;7.684;2023-04-15T03:44:46;4.60;1.00
3566;DHT22;1797;51.844;7.684;2023-04-15T03:47:12;4.60;1.00
3566;DHT22;1797;51.844;7.684;2023-04-15T03:49:37;4.50;1.00
3566;DHT22;1797;51.844;7.684;2023-04-15T03:52:03;4.50;1.00
3566;DHT22;1797;51.844;7.684;2023-04-15T03:54:29;4.40;1.00
3566;DHT22;1797;51.844;7.684;2023-04-15T03:56:54;4.40;1.00
3566;DHT22;1797;51.844;7.684;2023-04-15T03:59:21;4.30;99.90
3566;DHT22;1797;51.844;7.684;2023-04-15T04:01:46;4.30;99.90
3566;DHT22;1797;51.844;7.684;2023-04-15T04:04:12;4.30;1.00
3566;DHT22;1797;51.844;7.684;2023-04-15T04:06:38;4.30;70.60
3566;DHT22;1797;51.844;7.684;2023-04-15T04:09:03;4.30;1.00
3566;DHT22;1797;51.844;7.684;2023-04-15T04:11:29;4.40;1.00
3566;DHT22;1797;51.844;7.684;2023-04-15T04:13:55;4.40;99.90
3566;DHT22;1797;51.844;7.684;2023-04-15T04:16:20;4.40;61.90
3566;DHT22;1797;51.844;7.684;2023-04-15T04:18:46;4.40;1.00
3566;DHT22;1797;51.844;7.684;2023-04-15T04:21:12;4.30;15.00
3566;DHT22;1797;51.844;7.684;2023-04-15T04:23:37;4.30;99.90
3566;DHT22;1797;51.844;7.684;2023-04-15T04:26:03;4.30;99.90
3566;DHT22;1797;51.844;7.684;2023-04-15T04:28:28;4.40;1.00
3566;DHT22;1797;51.844;7.684;2023-04-15T04:30:54;4.40;99.90
3566;DHT22;1797;51.844;7.684;2023-04-15T04:33:20;4.40;1.00
3566;DHT22;1797;51.844;7.684;2023-04-15T04:35:46;4.40;1.00
3566;DHT22;1797;51.844;7.684;2023-04-15T04:38:11;4.40;1.00
3566;DHT22;1797;51.844;7.684;2023-04-15T04:40:37;4.40;1.00
3566;DHT22;1797;51.844;7.684;2023-04-15T04:43:03;4.40;1.00
3566;DHT22;1797;51.844;7.684;2023-04-15T04:45:28;4.50;1.00
3566;DHT22;1797;51.844;7.684;2023-04-15T04:47:54;4.60;1.00
3566;DHT22;1797;51.844;7.684;2023-04-15T04:50:19;4.60;1.00
3566;DHT22;1797;51.844;7.684;2023-04-15T04:52:45;4.60;1.00
3566;DHT22;1797;51.844;7.684;2023-04-15T04:55:11;4.60;1.00
3566;DHT22;1797;51.844;7.684;2023-04-15T04:57:36;4.70;1.00
3566;DHT22;1797;51.844;7.684;2023-04-15T05:00:05;4.70;1.00
3566;DHT22;1797;51.844;7.684;2023-04-15T05:02:30;4.80;1.00
3566;DHT22;1797;51.844;7.684;2023-04-15T05:04:56;4.80;1.00
3566;DHT22;1797;51.844;7.684;2023-04-15T05:07:22;4.80;1.00
3566;DHT22;1797;51.844;7.684;2023-04-15T05:09:48;4.90;1.00
3566;DHT22;1797;51.844;7.684;2023-04-15T05:12:13;4.90;1.00
3566;DHT22;1797;51.844;7.684;2023-04-15T05:14:42;4.90;9.50
3566;DHT22;1797;51.844;7.684;2023-04-15T05:17:08;4.90;99.90
3566;DHT22;1797;51.844;7.684;2023-04-15T05:19:33;5.00;99.90
3566;DHT22;1797;51.844;7.684;2023-04-15T05:21:59;5.00;99.90
3566;DHT22;1797;51.844;7.684;2023-04-15T05:24:25;5.10;99.90
3566;DHT22;1797;51.844;7.684;2023-04-15T05:26:51;5.10;99.90
3566;DHT22;1797;51.844;7.684;2023-04-15T05:29:17;5.20;99.90
3566;DHT22;1797;51.844;7.684;2023-04-15T05:31:42;5.30;99.90
3566;DHT22;1797;51.844;7.684;2023-04-15T05:34:08;5.40;99.90
3566;DHT22;1797;51.844;7.684;2023-04-15T05:36:34;5.40;99.90
3566;DHT22;1797;51.844;7.684;2023-04-15T05:39:00;5.40;99.90
3566;DHT22;1797;51.844;7.684;2023-04-15T05:41:26;5.40;99.90
3566;DHT22;1797;51.844;7.684;2023-04-15T05:43:51;5.50;99.90
3566;DHT22;1797;51.844;7.684;2023-04-15T05:46:17;5.50;99.90
3566;DHT22;1797;51.844;7.684;2023-04-15T05:48:42;5.60;99.90
3566;DHT22;1797;51.844;7.684;2023-04-15T05:51:08;5.60;99.90
3566;DHT22;1797;51.844;7.684;2023-04-15T05:53:34;5.70;99.90
3566;DHT22;1797;51.844;7.684;2023-04-15T05:56:00;5.70;99.90
3566;DHT22;1797;51.844;7.684;2023-04-15T05:58:25;5.80;99.90
3566;DHT22;1797;51.844;7.684;2023-04-15T06:00:51;5.80;99.90
3566;DHT22;1797;51.844;7.684;2023-04-15T06:03:17;5.80;99.90
3566;DHT22;1797;51.844;7.684;2023-04-15T06:05:43;5.90;99.90
3566;DHT22;1797;51.844;7.684;2023-04-15T06:08:09;6.00;99.90
3566;DHT22;1797;51.844;7.684;2023-04-15T06:10:36;6.00;99.90
3566;DHT22;1797;51.844;7.684;2023-04-15T06:13:02;6.10;99.90
3566;DHT22;1797;51.844;7.684;2023-04-15T06:15:28;6.10;99.90
3566;DHT22;1797;51.844;7.684;2023-04-15T06:17:54;6.20;99.90
3566;DHT22;1797;51.844;7.684;2023-04-15T06:20:20;6.20;99.90
3566;DHT22;1797;51.844;7.684;2023-04-15T06:22:46;6.30;99.90
3566;DHT22;1797;51.844;7.684;2023-04-15T06:25:11;6.30;99.90
3566;DHT22;1797;51.844;7.684;2023-04-15T06:27:37;6.30;99.90
3566;DHT22;1797;51.844;7.684;2023-04-15T06:30:03;6.40;99.90
3566;DHT22;1797;51.844;7.684;2023-04-15T06:32:29;6.50;99.90
3566;DHT22;1797;51.844;7.684;2023-04-15T06:34:55;6.50;99.90
3566;DHT22;1797;51.844;7.684;2023-04-15T06:37:21;6.60;62.30
3566;DHT22;1797;51.844;7.684;2023-04-15T06:39:46;6.70;1.00
3566;DHT22;1797;51.844;7.684;2023-04-15T06:42:12;6.70;1.00
3566;DHT22;1797;51.844;7.684;2023-04-15T06:44:38;6.80;1.00
3566;DHT22;1797;51.844;7.684;2023-04-15T06:47:03;6.90;1.00
3566;DHT22;1797;51.844;7.684;2023-04-15T06:49:29;6.90;99.90
3566;DHT22;1797;51.844;7.684;2023-04-15T06:51:55;6.90;99.90
3566;DHT22;1797;51.844;7.684;2023-04-15T06:54:20;7.00;44.80
3566;DHT22;1797;51.844;7.684;2023-04-15T06:56:46;7.00;1.00
3566;DHT22;1797;51.844;7.684;2023-04-15T06:59:12;7.00;1.00
3566;DHT22;1797;51.844;7.684;2023-04-15T07:01:39;7.20;1.00
3566;DHT22;1797;51.844;7.684;2023-04-15T07:04:06;7.20;1.00
3566;DHT22;1797;51.844;7.684;2023-04-15T07:06:32;7.20;1.00
3566;DHT22;1797;51.844;7.684;2023-04-15T07:08:58;7.20;1.00
3566;DHT22;1797;51.844;7.684;2023-04-15T07:11:25;7.20;1.00
3566;DHT22;1797;51.844;7.684;2023-04-15T07:13:50;7.30;76.90
3566;DHT22;1797;51.844;7.684;2023-04-15T07:16:16;7.30;99.90
3566;DHT22;1797;51.844;7.684;2023-04-15T07:18:42;7.40;99.90
3566;DHT22;1797;51.844;7.684;2023-04-15T07:21:08;7.40;1.00
3566;DHT22;1797;51.844;7.684;2023-04-15T07:23:34;7.40;1.00
3566;DHT22;1797;51.844;7.684;2023-04-15T07:25:59;7.40;1.00
3566;DHT22;1797;51.844;7.684;2023-04-15T07:28:26;7.50;1.00
3566;DHT22;1797;51.844;7.684;2023-04-15T07:30:52;7.50;1.00
3566;DHT22;1797;51.844;7.684;2023-04-15T07:33:17;7.60;99.90
3566;DHT22;1797;51.844;7.684;2023-04-15T07:35:43;7.60;1.00
3566;DHT22;1797;51.844;7.684;2023-04-15T07:38:09;7.50;1.00
3566;DHT22;1797;51.844;7.684;2023-04-15T07:40:37;7.50;1.00
3566;DHT22;1797;51.844;7.684;2023-04-15T07:43:04;7.60;1.00
3566;DHT22;1797;51.844;7.684;2023-04-15T07:45:30;7.70;1.00
3566;DHT22;1797;51.844;7.684;2023-04-15T07:47:56;7.90;99.90
3566;DHT22;1797;51.844;7.684;2023-04-15T07:50:22;8.00;1.00
3566;DHT22;1797;51.844;7.684;2023-04-15T07:52:48;8.10;1.00
3566;DHT22;1797;51.844;7.684;2023-04-15T07:55:14;8.20;1.00
3566;DHT22;1797;51.844;7.684;2023-04-15T07:57:43;8.40;1.00
3566;DHT22;1797;51.844;7.684;2023-04-15T08:00:09;8.70;1.00
3566;DHT22;1797;51.844;7.684;2023-04-15T08:02:35;8.90;1.00
3566;DHT22;1797;51.844;7.684;2023-04-15T08:05:01;9.10;1.00
3566;DHT22;1797;51.844;7.684;2023-04-15T08:07:28;9.10;1.00
3566;DHT22;1797;51.844;7.684;2023-04-15T08:09:54;9.20;1.00
3566;DHT22;1797;51.844;7.684;2023-04-15T08:12:20;8.90;1.00
3566;DHT22;1797;51.844;7.684;2023-04-15T08:14:46;8.80;1.00
3566;DHT22;1797;51.844;7.684;2023-04-15T08:17:11;8.60;1.00
3566;DHT22;1797;51.844;7.684;2023-04-15T08:19:37;8.40;99.90
3566;DHT22;1797;51.844;7.684;2023-04-15T08:22:03;8.40;99.90
3566;DHT22;1797;51.844;7.684;2023-04-15T08:24:37;8.50;99.90
3566;DHT22;1797;51.844;7.684;2023-04-15T08:27:03;8.60;96.50
3566;DHT22;1797;51.844;7.684;2023-04-15T08:29:30;8.50;99.90
3566;DHT22;1797;51.844;7.684;2023-04-15T08:31:56;8.40;99.90
3566;DHT22;1797;51.844;7.684;2023-04-15T08:34:22;8.40;99.90
3566;DHT22;1797;51.844;7.684;2023-04-15T08:36:48;8.40;1.00
3566;DHT22;1797;51.844;7.684;2023-04-15T08:39:14;8.30;1.00
3566;DHT22;1797;51.844;7.684;2023-04-15T08:42:06;8.30;1.00
3566;DHT22;1797;51.844;7.684;2023-04-15T08:44:35;8.30;1.00
3566;DHT22;1797;51.844;7.684;2023-04-15T08:47:07;8.40;1.00
3566;DHT22;1797;51.844;7.684;2023-04-15T08:49:36;8.50;1.00
3566;DHT22;1797;51.844;7.684;2023-04-15T08:52:03;8.60;1.00
3566;DHT22;1797;51.844;7.684;2023-04-15T08:54:29;8.60;1.00
3566;DHT22;1797;51.844;7.684;2023-04-15T08:56:57;8.70;1.00
3566;DHT22;1797;51.844;7.684;2023-04-15T08:59:23;8.70;1.00
3566;DHT22;1797;51.844;7.684;2023-04-15T09:01:49;8.80;1.00
3566;DHT22;1797;51.844;7.684;2023-04-15T09:04:17;8.80;99.90
3566;DHT22;1797;51.844;7.684;2023-04-15T09:06:43;8.70;1.00
3566;DHT22;1797;51.844;7.684;2023-04-15T09:09:09;8.80;1.00
3566;DHT22;1797;51.844;7.684;2023-04-15T09:11:34;8.70;1.00
3566;DHT22;1797;51.844;7.684;2023-04-15T09:14:00;8.80;1.00
3566;DHT22;1797;51.844;7.684;2023-04-15T09:16:26;8.90;1.00
3566;DHT22;1797;51.844;7.684;2023-04-15T09:18:52;8.80;1.00
3566;DHT22;1797;51.844;7.684;2023-04-15T09:21:18;8.90;1.00
3566;DHT22;1797;51.844;7.684;2023-04-15T09:23:58;8.90;1.00
3566;DHT22;1797;51.844;7.684;2023-04-15T09:26:32;8.80;1.00
3566;DHT22;1797;51.844;7.684;2023-04-15T09:29:09;8.80;1.00
3566;DHT22;1797;51.844;7.684;2023-04-15T09:31:38;8.80;1.00
3566;DHT22;1797;51.844;7.684;2023-04-15T09:34:03;8.80;1.00
3566;DHT22;1797;51.844;7.684;2023-04-15T09:36:54;8.70;1.00
3566;DHT22;1797;51.844;7.684;2023-04-15T09:39:20;8.70;55.60
3566;DHT22;1797;51.844;7.684;2023-04-15T09:41:46;8.80;87.80
3566;DHT22;1797;51.844;7.684;2023-04-15T09:44:24;8.90;1.00
3566;DHT22;1797;51.844;7.684;2023-04-15T09:46:50;8.90;1.00
3566;DHT22;1797;51.844;7.684;2023-04-15T09:49:16;8.90;1.00
3566;DHT22;1797;51.844;7.684;2023-04-15T09:51:42;8.90;1.00
3566;DHT22;1797;51.844;7.684;2023-04-15T09:54:08;8.90;1.00
3566;DHT22;1797;51.844;7.684;2023-04-15T09:56:37;8.90;1.00
3566;DHT22;1797;51.844;7.684;2023-04-15T09:59:06;8.90;1.00
3566;DHT22;1797;51.844;7.684;2023-04-15T10:01:32;8.90;1.00
3566;DHT22;1797;51.844;7.684;2023-04-15T10:04:02;8.80;1.00
3566;DHT22;1797;51.844;7.684;2023-04-15T10:06:29;8.80;1.00
3566;DHT22;1797;51.844;7.684;2023-04-15T10:08:56;8.80;1.00
3566;DHT22;1797;51.844;7.684;2023-04-15T10:11:23;8.80;99.90
3566;DHT22;1797;51.844;7.684;2023-04-15T10:13:49;8.80;91.00
3566;DHT22;1797;51.844;7.684;2023-04-15T10:16:18;8.80;77.70
3566;DHT22;1797;51.844;7.684;2023-04-15T10:18:50;8.70;99.90
3566;DHT22;1797;51.844;7.684;2023-04-15T10:21:19;8.80;99.90
3566;DHT22;1797;51.844;7.684;2023-04-15T10:23:45;8.80;99.90
3566;DHT22;1797;51.844;7.684;2023-04-15T10:26:12;8.90;99.90
3566;DHT22;1797;51.844;7.684;2023-04-15T10:28:40;9.00;99.90
3566;DHT22;1797;51.844;7.684;2023-04-15T10:31:06;9.00;99.90
3566;DHT22;1797;51.844;7.684;2023-04-15T10:33:32;9.00;99.90
3566;DHT22;1797;51.844;7.684;2023-04-15T10:35:59;9.10;1.00
3566;DHT22;1797;51.844;7.684;2023-04-15T10:38:42;9.10;1.00
3566;DHT22;1797;51.844;7.684;2023-04-15T10:43:49;9.10;1.00
3566;DHT22;1797;51.844;7.684;2023-04-15T10:46:21;9.10;1.00
3566;DHT22;1797;51.844;7.684;2023-04-15T10:48:48;9.10;1.00
3566;DHT22;1797;51.844;7.684;2023-04-15T10:51:14;9.10;1.00
3566;DHT22;1797;51.844;7.684;2023-04-15T10:53:41;9.00;1.00
3566;DHT22;1797;51.844;7.684;2023-04-15T10:56:07;9.10;99.90
3566;DHT22;1797;51.844;7.684;2023-04-15T10:58:42;9.10;99.90
3566;DHT22;1797;51.844;7.684;2023-04-15T11:01:08;9.10;1.00
3566;DHT22;1797;51.844;7.684;2023-04-15T11:03:39;9.20;1.00
3566;DHT22;1797;51.844;7.684;2023-04-15T11:06:05;9.30;35.10
3566;DHT22;1797;51.844;7.684;2023-04-15T11:08:57;9.30;1.00
3566;DHT22;1797;51.844;7.684;2023-04-15T11:14:27;9.30;1.00
3566;DHT22;1797;51.844;7.684;2023-04-15T11:16:52;9.20;1.00
3566;DHT22;1797;51.844;7.684;2023-04-15T11:19:18;9.20;28.80
3566;DHT22;1797;51.844;7.684;2023-04-15T11:21:43;9.30;99.90
3566;DHT22;1797;51.844;7.684;2023-04-15T11:24:09;9.30;17.50
3566;DHT22;1797;51.844;7.684;2023-04-15T11:26:34;9.30;99.90
3566;DHT22;1797;51.844;7.684;2023-04-15T11:29:00;9.30;1.00
3566;DHT22;1797;51.844;7.684;2023-04-15T11:31:27;9.30;1.00
3566;DHT22;1797;51.844;7.684;2023-04-15T11:36:18;9.30;1.00
3566;DHT22;1797;51.844;7.684;2023-04-15T11:38:46;9.30;1.00
3566;DHT22;1797;51.844;7.684;2023-04-15T11:41:12;9.30;99.90
3566;DHT22;1797;51.844;7.684;2023-04-15T11:43:37;9.30;59.00
3566;DHT22;1797;51.844;7.684;2023-04-15T11:46:03;9.30;1.00
3566;DHT22;1797;51.844;7.684;2023-04-15T11:48:31;9.20;1.00
3566;DHT22;1797;51.844;7.684;2023-04-15T11:50:59;9.20;59.60
3566;DHT22;1797;51.844;7.684;2023-04-15T11:53:36;9.20;1.00
3566;DHT22;1797;51.844;7.684;2023-04-15T11:56:03;9.30;99.90
3566;DHT22;1797;51.844;7.684;2023-04-15T11:58:28;9.30;4.40
3566;DHT22;1797;51.844;7.684;2023-04-15T12:00:56;9.30;99.90
3566;DHT22;1797;51.844;7.684;2023-04-15T12:03:30;9.30;1.00
3566;DHT22;1797;51.844;7.684;2023-04-15T12:09:10;9.30;99.90
3566;DHT22;1797;51.844;7.684;2023-04-15T12:11:39;9.30;99.90
3566;DHT22;1797;51.844;7.684;2023-04-15T12:14:10;9.30;1.00
3566;DHT22;1797;51.844;7.684;2023-04-15T12:16:39;9.30;96.10
3566;DHT22;1797;51.844;7.684;2023-04-15T12:19:09;9.40;99.90
3566;DHT22;1797;51.844;7.684;2023-04-15T12:21:40;9.50;99.90
3566;DHT22;1797;51.844;7.684;2023-04-15T12:24:09;9.50;1.00
3566;DHT22;1797;51.844;7.684;2023-04-15T12:26:55;9.50;1.00
3566;DHT22;1797;51.844;7.684;2023-04-15T12:29:29;9.50;99.90
3566;DHT22;1797;51.844;7.684;2023-04-15T12:34:39;9.50;1.00
3566;DHT22;1797;51.844;7.684;2023-04-15T12:37:07;9.50;99.90
3566;DHT22;1797;51.844;7.684;2023-04-15T12:39:39;9.50;1.00
3566;DHT22;1797;51.844;7.684;2023-04-15T12:42:05;9.50;99.90
3566;DHT22;1797;51.844;7.684;2023-04-15T12:44:31;9.50;48.90
3566;DHT22;1797;51.844;7.684;2023-04-15T12:46:58;9.60;91.10
3566;DHT22;1797;51.844;7.684;2023-04-15T12:49:25;9.70;99.90
3566;DHT22;1797;51.844;7.684;2023-04-15T12:51:53;9.60;99.90
3566;DHT22;1797;51.844;7.684;2023-04-15T12:54:19;9.70;60.90
3566;DHT22;1797;51.844;7.684;2023-04-15T12:56:46;9.70;1.00
3566;DHT22;1797;51.844;7.684;2023-04-15T12:59:13;9.70;1.00
3566;DHT22;1797;51.844;7.684;2023-04-15T13:01:39;9.60;1.00
3566;DHT22;1797;51.844;7.684;2023-04-15T13:04:05;9.80;1.00
3566;DHT22;1797;51.844;7.684;2023-04-15T13:06:31;9.80;99.90
3566;DHT22;1797;51.844;7.684;2023-04-15T13:08:59;9.70;1.00
3566;DHT22;1797;51.844;7.684;2023-04-15T13:11:26;9.60;1.00
3566;DHT22;1797;51.844;7.684;2023-04-15T13:13:53;9.60;99.90
3566;DHT22;1797;51.844;7.684;2023-04-15T13:16:19;9.60;1.00
3566;DHT22;1797;51.844;7.684;2023-04-15T13:18:47;9.70;99.90
3566;DHT22;1797;51.844;7.684;2023-04-15T13:21:12;9.60;99.90
3566;DHT22;1797;51.844;7.684;2023-04-15T13:23:38;9.60;96.40
3566;DHT22;1797;51.844;7.684;2023-04-15T13:26:03;9.50;99.90
3566;DHT22;1797;51.844;7.684;2023-04-15T13:28:29;9.60;1.00
3566;DHT22;1797;51.844;7.684;2023-04-15T13:30:55;9.50;99.90
3566;DHT22;1797;51.844;7.684;2023-04-15T13:33:21;9.50;99.90
3566;DHT22;1797;51.844;7.684;2023-04-15T13:35:46;9.50;1.00
3566;DHT22;1797;51.844;7.684;2023-04-15T13:38:12;9.50;1.00
3566;DHT22;1797;51.844;7.684;2023-04-15T13:40:37;9.50;1.00
3566;DHT22;1797;51.844;7.684;2023-04-15T13:43:03;9.50;1.00
3566;DHT22;1797;51.844;7.684;2023-04-15T13:45:29;9.60;1.00
3566;DHT22;1797;51.844;7.684;2023-04-15T13:47:55;9.40;1.00
3566;DHT22;1797;51.844;7.684;2023-04-15T13:50:21;9.40;1.00
3566;DHT22;1797;51.844;7.684;2023-04-15T13:52:47;9.40;99.90
3566;DHT22;1797;51.844;7.684;2023-04-15T13:55:13;9.40;90.10
3566;DHT22;1797;51.844;7.684;2023-04-15T13:57:38;9.50;99.90
3566;DHT22;1797;51.844;7.684;2023-04-15T14:00:04;9.50;1.00
3566;DHT22;1797;51.844;7.684;2023-04-15T14:02:30;9.50;1.00
3566;DHT22;1797;51.844;7.684;2023-04-15T14:04:56;9.50;1.00
3566;DHT22;1797;51.844;7.684;2023-04-15T14:07:22;9.60;99.90
3566;DHT22;1797;51.844;7.684;2023-04-15T14:09:47;9.50;99.90
3566;DHT22;1797;51.844;7.684;2023-04-15T14:12:13;9.40;99.90
3566;DHT22;1797;51.844;7.684;2023-04-15T14:14:39;9.40;99.90
3566;DHT22;1797;51.844;7.684;2023-04-15T14:17:06;9.40;1.00
3566;DHT22;1797;51.844;7.684;2023-04-15T14:19:32;9.40;1.00
3566;DHT22;1797;51.844;7.684;2023-04-15T14:21:57;9.40;1.00
3566;DHT22;1797;51.844;7.684;2023-04-15T14:24:23;9.30;1.00
3566;DHT22;1797;51.844;7.684;2023-04-15T14:26:49;9.30;99.90
3566;DHT22;1797;51.844;7.684;2023-04-15T14:29:15;9.30;99.90
3566;DHT22;1797;51.844;7.684;2023-04-15T14:31:41;9.20;99.90
3566;DHT22;1797;51.844;7.684;2023-04-15T14:34:08;9.20;99.90
3566;DHT22;1797;51.844;7.684;2023-04-15T14:36:34;9.20;99.90
3566;DHT22;1797;51.844;7.684;2023-04-15T14:38:59;9.10;99.90
3566;DHT22;1797;51.844;7.684;2023-04-15T14:41:25;9.10;99.90
3566;DHT22;1797;51.844;7.684;2023-04-15T14:43:51;9.20;99.90
3566;DHT22;1797;51.844;7.684;2023-04-15T14:46:16;9.10;99.90
3566;DHT22;1797;51.844;7.684;2023-04-15T14:48:42;9.10;99.90
3566;DHT22;1797;51.844;7.684;2023-04-15T14:51:08;9.00;99.90
3566;DHT22;1797;51.844;7.684;2023-04-15T14:53:34;9.00;99.90
3566;DHT22;1797;51.844;7.684;2023-04-15T14:55:59;9.10;99.90
3566;DHT22;1797;51.844;7.684;2023-04-15T14:58:25;9.10;99.90
3566;DHT22;1797;51.844;7.684;2023-04-15T15:00:50;9.00;99.90
3566;DHT22;1797;51.844;7.684;2023-04-15T15:03:16;9.10;99.90
3566;DHT22;1797;51.844;7.684;2023-04-15T15:05:43;9.00;99.90
3566;DHT22;1797;51.844;7.684;2023-04-15T15:08:10;8.90;99.90
3566;DHT22;1797;51.844;7.684;2023-04-15T15:10:38;8.90;99.90
3566;DHT22;1797;51.844;7.684;2023-04-15T15:13:06;8.90;99.90
3566;DHT22;1797;51.844;7.684;2023-04-15T15:15:32;8.90;99.90
3566;DHT22;1797;51.844;7.684;2023-04-15T15:17:58;8.90;99.90
3566;DHT22;1797;51.844;7.684;2023-04-15T15:20:25;8.80;99.90
3566;DHT22;1797;51.844;7.684;2023-04-15T15:22:50;8.80;99.90
3566;DHT22;1797;51.844;7.684;2023-04-15T15:25:16;8.80;99.90
3566;DHT22;1797;51.844;7.684;2023-04-15T15:27:42;8.80;99.90
3566;DHT22;1797;51.844;7.684;2023-04-15T15:30:08;8.70;99.90
3566;DHT22;1797;51.844;7.684;2023-04-15T15:32:34;8.70;99.90
3566;DHT22;1797;51.844;7.684;2023-04-15T15:34:59;8.80;99.90
3566;DHT22;1797;51.844;7.684;2023-04-15T15:37:25;8.80;99.90
3566;DHT22;1797;51.844;7.684;2023-04-15T15:39:51;8.70;99.90
3566;DHT22;1797;51.844;7.684;2023-04-15T15:42:21;8.70;99.90
3566;DHT22;1797;51.844;7.684;2023-04-15T15:44:46;8.70;99.90
3566;DHT22;1797;51.844;7.684;2023-04-15T15:47:17;8.70;99.90
3566;DHT22;1797;51.844;7.684;2023-04-15T15:49:42;8.70;99.90
3566;DHT22;1797;51.844;7.684;2023-04-15T15:52:08;8.70;99.90
3566;DHT22;1797;51.844;7.684;2023-04-15T15:54:34;8.70;99.90
3566;DHT22;1797;51.844;7.684;2023-04-15T15:57:01;8.70;99.90
3566;DHT22;1797;51.844;7.684;2023-04-15T15:59:26;8.70;99.90
3566;DHT22;1797;51.844;7.684;2023-04-15T16:01:52;8.70;99.90
3566;DHT22;1797;51.844;7.684;2023-04-15T16:04:18;8.80;99.90
3566;DHT22;1797;51.844;7.684;2023-04-15T16:06:43;8.70;99.90
3566;DHT22;1797;51.844;7.684;2023-04-15T16:09:11;8.70;99.90
3566;DHT22;1797;51.844;7.684;2023-04-15T16:11:37;8.60;99.90
3566;DHT22;1797;51.844;7.684;2023-04-15T16:14:02;8.60;99.90
3566;DHT22;1797;51.844;7.684;2023-04-15T16:16:28;8.60;99.90
3566;DHT22;1797;51.844;7.684;2023-04-15T16:18:54;8.60;99.90
3566;DHT22;1797;51.844;7.684;2023-04-15T16:21:20;8.60;99.90
3566;DHT22;1797;51.844;7.684;2023-04-15T16:23:46;8.60;99.90
3566;DHT22;1797;51.844;7.684;2023-04-15T16:26:11;8.60;99.90
3566;DHT22;1797;51.844;7.684;2023-04-15T16:28:37;8.60;99.90
3566;DHT22;1797;51.844;7.684;2023-04-15T16:31:03;8.60;99.90
3566;DHT22;1797;51.844;7.684;2023-04-15T16:33:28;8.60;99.90
3566;DHT22;1797;51.844;7.684;2023-04-15T16:35:54;8.60;99.90